createdAt,value
2019-01-31T00:00:26.365Z,994.93
2019-01-31T00:01:35.445Z,994.9
2019-01-31T00:02:44.285Z,994.95
2019-01-31T00:03:53.097Z,994.95
2019-01-31T00:05:02.294Z,994.93
2019-01-31T00:06:11.375Z,994.92
2019-01-31T00:07:20.465Z,994.93
2019-01-31T00:08:29.552Z,994.94
2019-01-31T00:09:50.290Z,994.93
2019-01-31T00:10:59.584Z,994.91
2019-01-31T00:12:08.946Z,994.93
2019-01-31T00:13:18.050Z,994.93
2019-01-31T00:14:27.159Z,994.96
2019-01-31T00:15:36.228Z,994.99
2019-01-31T00:16:45.411Z,994.98
2019-01-31T00:17:54.503Z,995
2019-01-31T00:19:03.325Z,994.96
2019-01-31T00:20:12.679Z,994.97
2019-01-31T00:21:21.897Z,994.95
2019-01-31T00:22:31.047Z,994.98
2019-01-31T00:23:39.863Z,995
2019-01-31T00:24:48.948Z,995
2019-01-31T00:25:58.005Z,995
2019-01-31T00:27:07.358Z,995.01
2019-01-31T00:28:16.271Z,995.01
2019-01-31T00:29:25.090Z,994.99
2019-01-31T00:30:33.908Z,994.99
2019-01-31T00:31:42.971Z,995
2019-01-31T00:32:52.037Z,995.02
2019-01-31T00:34:01.159Z,995
2019-01-31T00:35:09.955Z,995.02
2019-01-31T00:36:18.777Z,994.99
2019-01-31T00:37:27.619Z,995.01
2019-01-31T00:38:36.686Z,994.98
2019-01-31T00:39:56.790Z,994.96
2019-01-31T00:41:05.711Z,994.95
2019-01-31T00:42:15.041Z,994.97
2019-01-31T00:43:23.844Z,994.94
2019-01-31T00:44:32.957Z,994.92
2019-01-31T00:45:42.399Z,994.95
2019-01-31T00:46:51.242Z,994.98
2019-01-31T00:48:00.079Z,994.93
2019-01-31T00:49:09.716Z,994.97
2019-01-31T00:50:18.809Z,994.97
2019-01-31T00:51:28.135Z,994.96
2019-01-31T00:52:37.210Z,994.91
2019-01-31T00:53:46.030Z,994.91
2019-01-31T00:54:54.854Z,994.88
2019-01-31T00:56:03.935Z,994.91
2019-01-31T00:57:13.130Z,994.9
2019-01-31T00:58:21.961Z,994.94
2019-01-31T00:59:30.785Z,994.96
2019-01-31T01:00:39.938Z,994.94
2019-01-31T01:01:49.110Z,994.97
2019-01-31T01:02:57.973Z,994.97
2019-01-31T01:04:06.804Z,994.99
2019-01-31T01:05:15.611Z,995.03
2019-01-31T01:06:24.671Z,995.04
2019-01-31T01:07:33.502Z,995.05
2019-01-31T01:08:42.948Z,995.05
2019-01-31T01:09:52.062Z,995.04
2019-01-31T01:11:00.928Z,995.07
2019-01-31T01:12:10.032Z,995.04
2019-01-31T01:13:18.848Z,995
2019-01-31T01:14:28.298Z,995.01
2019-01-31T01:15:37.652Z,995.01
2019-01-31T01:16:47.276Z,994.95
2019-01-31T01:17:56.083Z,994.97
2019-01-31T01:19:04.913Z,994.97
2019-01-31T01:20:14.124Z,995
2019-01-31T01:21:23.224Z,994.99
2019-01-31T01:22:32.344Z,995.01
2019-01-31T01:23:41.224Z,995.06
2019-01-31T01:24:50.044Z,995.07
2019-01-31T01:25:59.163Z,995.08
2019-01-31T01:27:08.272Z,995.1
2019-01-31T01:28:17.485Z,995.11
2019-01-31T01:29:26.362Z,995.07
2019-01-31T01:30:35.186Z,995.09
2019-01-31T01:31:44.536Z,995.1
2019-01-31T01:32:53.619Z,995.09
2019-01-31T01:34:02.424Z,995.1
2019-01-31T01:35:11.229Z,995.1
2019-01-31T01:36:20.300Z,995.1
2019-01-31T01:37:29.442Z,995.12
2019-01-31T01:38:38.267Z,995.13
2019-01-31T01:39:47.639Z,995.12
2019-01-31T01:40:56.979Z,995.11
2019-01-31T01:42:06.055Z,995.15
2019-01-31T01:43:15.253Z,995.1
2019-01-31T01:44:24.069Z,995.11
2019-01-31T01:45:32.915Z,995.09
2019-01-31T01:46:42.003Z,995.08
2019-01-31T01:47:50.802Z,995.1
2019-01-31T01:48:59.903Z,995.11
2019-01-31T01:50:09.036Z,995.12
2019-01-31T01:51:18.360Z,995.14
2019-01-31T01:52:27.730Z,995.16
2019-01-31T01:53:36.548Z,995.17
2019-01-31T01:54:45.806Z,995.2
2019-01-31T01:55:54.914Z,995.23
2019-01-31T01:57:04.261Z,995.21
2019-01-31T01:58:13.339Z,995.22
2019-01-31T01:59:22.398Z,995.24
2019-01-31T02:00:31.559Z,995.22
2019-01-31T02:01:41.213Z,995.21
2019-01-31T02:02:50.289Z,995.21
2019-01-31T02:03:59.372Z,995.21
2019-01-31T02:05:08.459Z,995.23
2019-01-31T02:06:17.292Z,995.18
2019-01-31T02:07:26.406Z,995.17
2019-01-31T02:08:35.216Z,995.2
2019-01-31T02:09:44.302Z,995.17
2019-01-31T02:10:53.403Z,995.15
2019-01-31T02:12:02.411Z,995.15
2019-01-31T02:13:11.221Z,995.15
2019-01-31T02:14:20.060Z,995.13
2019-01-31T02:15:29.418Z,995.2
2019-01-31T02:16:38.249Z,995.2
2019-01-31T02:17:47.073Z,995.19
2019-01-31T02:18:55.892Z,995.15
2019-01-31T02:20:05.229Z,995.19
2019-01-31T02:21:14.300Z,995.2
2019-01-31T02:22:23.406Z,995.21
2019-01-31T02:23:32.600Z,995.22
2019-01-31T02:24:41.935Z,995.21
2019-01-31T02:25:51.283Z,995.21
2019-01-31T02:27:00.118Z,995.18
2019-01-31T02:28:08.939Z,995.24
2019-01-31T02:29:18.331Z,995.24
2019-01-31T02:30:27.418Z,995.25
2019-01-31T02:31:36.528Z,995.27
2019-01-31T02:32:45.881Z,995.24
2019-01-31T02:33:55.239Z,995.26
2019-01-31T02:35:04.063Z,995.29
2019-01-31T02:36:13.143Z,995.27
2019-01-31T02:37:21.968Z,995.32
2019-01-31T02:38:30.804Z,995.3
2019-01-31T02:39:42.903Z,995.32
2019-01-31T02:40:52.189Z,995.33
2019-01-31T02:42:01.278Z,995.33
2019-01-31T02:43:10.213Z,995.33
2019-01-31T02:44:19.035Z,995.33
2019-01-31T02:45:28.138Z,995.32
2019-01-31T02:46:37.324Z,995.32
2019-01-31T02:47:46.452Z,995.31
2019-01-31T02:48:56.352Z,995.32
2019-01-31T02:50:05.456Z,995.35
2019-01-31T02:51:14.303Z,995.31
2019-01-31T02:52:23.432Z,995.31
2019-01-31T02:53:32.335Z,995.33
2019-01-31T02:54:41.410Z,995.3
2019-01-31T02:55:50.232Z,995.32
2019-01-31T02:56:59.087Z,995.32
2019-01-31T02:58:08.485Z,995.32
2019-01-31T02:59:17.578Z,995.36
2019-01-31T03:00:26.411Z,995.37
2019-01-31T03:01:35.283Z,995.37
2019-01-31T03:02:44.374Z,995.34
2019-01-31T03:03:53.558Z,995.35
2019-01-31T03:05:02.392Z,995.35
2019-01-31T03:06:11.748Z,995.34
2019-01-31T03:07:20.826Z,995.31
2019-01-31T03:08:30.170Z,995.34
2019-01-31T03:09:39.615Z,995.28
2019-01-31T03:10:59.614Z,995.32
2019-01-31T03:12:08.736Z,995.34
2019-01-31T03:13:18.112Z,995.33
2019-01-31T03:14:26.939Z,995.36
2019-01-31T03:15:35.861Z,995.36
2019-01-31T03:16:44.941Z,995.36
2019-01-31T03:17:54.025Z,995.41
2019-01-31T03:19:03.664Z,995.42
2019-01-31T03:20:12.517Z,995.39
2019-01-31T03:21:21.633Z,995.39
2019-01-31T03:22:30.965Z,995.39
2019-01-31T03:23:40.097Z,995.4
2019-01-31T03:24:49.207Z,995.41
2019-01-31T03:25:58.281Z,995.39
2019-01-31T03:27:07.518Z,995.4
2019-01-31T03:28:16.970Z,995.43
2019-01-31T03:29:25.834Z,995.43
2019-01-31T03:30:34.932Z,995.43
2019-01-31T03:31:44.062Z,995.43
2019-01-31T03:32:52.989Z,995.44
2019-01-31T03:34:02.360Z,995.46
2019-01-31T03:35:11.451Z,995.4
2019-01-31T03:36:20.297Z,995.44
2019-01-31T03:37:29.374Z,995.44
2019-01-31T03:38:38.282Z,995.44
2019-01-31T03:39:47.359Z,995.4
2019-01-31T03:41:08.922Z,995.39
2019-01-31T03:42:17.869Z,995.42
2019-01-31T03:43:26.695Z,995.42
2019-01-31T03:44:35.875Z,995.4
2019-01-31T03:45:44.703Z,995.38
2019-01-31T03:46:53.792Z,995.38
2019-01-31T03:48:02.656Z,995.42
2019-01-31T03:49:11.755Z,995.45
2019-01-31T03:50:20.827Z,995.42
2019-01-31T03:51:29.908Z,995.45
2019-01-31T03:52:38.735Z,995.45
2019-01-31T03:53:47.808Z,995.45
2019-01-31T03:54:56.910Z,995.46
2019-01-31T03:56:06.073Z,995.46
2019-01-31T03:57:18.346Z,995.46
2019-01-31T03:58:27.419Z,995.47
2019-01-31T03:59:36.237Z,995.5
2019-01-31T04:00:45.116Z,995.48
2019-01-31T04:01:53.990Z,995.5
2019-01-31T04:03:03.342Z,995.49
2019-01-31T04:04:12.733Z,995.5
2019-01-31T04:05:21.797Z,995.5
2019-01-31T04:06:31.171Z,995.54
2019-01-31T04:07:40.247Z,995.53
2019-01-31T04:08:49.316Z,995.5
2019-01-31T04:09:58.384Z,995.53
2019-01-31T04:11:18.864Z,995.54
2019-01-31T04:12:28.259Z,995.51
2019-01-31T04:13:37.139Z,995.55
2019-01-31T04:14:45.942Z,995.56
2019-01-31T04:15:54.766Z,995.54
2019-01-31T04:17:03.869Z,995.55
2019-01-31T04:18:12.688Z,995.57
2019-01-31T04:19:21.650Z,995.56
2019-01-31T04:20:30.464Z,995.57
2019-01-31T04:21:39.565Z,995.53
2019-01-31T04:22:48.415Z,995.56
2019-01-31T04:23:57.267Z,995.58
2019-01-31T04:25:07.038Z,995.57
2019-01-31T04:26:15.872Z,995.54
2019-01-31T04:27:24.703Z,995.56
2019-01-31T04:28:33.539Z,995.54
2019-01-31T04:29:42.399Z,995.56
2019-01-31T04:30:51.343Z,995.55
2019-01-31T04:32:00.451Z,995.55
2019-01-31T04:33:09.598Z,995.53
2019-01-31T04:34:18.809Z,995.57
2019-01-31T04:35:27.884Z,995.54
2019-01-31T04:36:36.839Z,995.58
2019-01-31T04:37:46.338Z,995.6
2019-01-31T04:38:55.163Z,995.56
2019-01-31T04:40:04.258Z,995.58
2019-01-31T04:41:13.625Z,995.56
2019-01-31T04:42:23.270Z,995.59
2019-01-31T04:43:32.358Z,995.58
2019-01-31T04:44:41.286Z,995.58
2019-01-31T04:45:50.128Z,995.58
2019-01-31T04:46:58.996Z,995.55
2019-01-31T04:48:08.415Z,995.55
2019-01-31T04:49:17.516Z,995.54
2019-01-31T04:50:27.166Z,995.53
2019-01-31T04:51:36.308Z,995.52
2019-01-31T04:52:45.677Z,995.48
2019-01-31T04:53:55.129Z,995.53
2019-01-31T04:55:04.202Z,995.52
2019-01-31T04:56:13.313Z,995.55
2019-01-31T04:57:22.420Z,995.54
2019-01-31T04:58:31.775Z,995.53
2019-01-31T04:59:40.825Z,995.61
2019-01-31T05:00:49.958Z,995.59
2019-01-31T05:01:59.112Z,995.63
2019-01-31T05:03:08.476Z,995.61
2019-01-31T05:04:17.864Z,995.63
2019-01-31T05:05:26.803Z,995.63
2019-01-31T05:06:35.899Z,995.59
2019-01-31T05:07:45.277Z,995.62
2019-01-31T05:08:54.347Z,995.63
2019-01-31T05:10:03.438Z,995.6
2019-01-31T05:11:12.563Z,995.61
2019-01-31T05:12:21.788Z,995.65
2019-01-31T05:13:30.617Z,995.65
2019-01-31T05:14:40.448Z,995.62
2019-01-31T05:15:49.562Z,995.6
2019-01-31T05:16:58.378Z,995.62
2019-01-31T05:18:07.750Z,995.66
2019-01-31T05:19:16.854Z,995.65
2019-01-31T05:20:25.696Z,995.62
2019-01-31T05:21:34.529Z,995.63
2019-01-31T05:22:43.356Z,995.6
2019-01-31T05:23:52.466Z,995.61
2019-01-31T05:25:01.970Z,995.63
2019-01-31T05:26:11.329Z,995.58
2019-01-31T05:27:20.937Z,995.57
2019-01-31T05:28:30.449Z,995.59
2019-01-31T05:29:39.550Z,995.6
2019-01-31T05:30:48.891Z,995.57
2019-01-31T05:31:58.280Z,995.59
2019-01-31T05:33:07.096Z,995.55
2019-01-31T05:34:16.298Z,995.58
2019-01-31T05:35:25.128Z,995.53
2019-01-31T05:36:34.242Z,995.53
2019-01-31T05:37:43.421Z,995.57
2019-01-31T05:38:52.495Z,995.58
2019-01-31T05:40:01.572Z,995.59
2019-01-31T05:41:10.668Z,995.59
2019-01-31T05:42:19.803Z,995.59
2019-01-31T05:43:28.623Z,995.58
2019-01-31T05:44:37.434Z,995.58
2019-01-31T05:45:46.514Z,995.59
2019-01-31T05:46:55.606Z,995.61
2019-01-31T05:48:04.983Z,995.67
2019-01-31T05:49:14.237Z,995.67
2019-01-31T05:50:23.331Z,995.67
2019-01-31T05:51:32.582Z,995.69
2019-01-31T05:52:44.234Z,995.65
2019-01-31T05:53:53.058Z,995.73
2019-01-31T05:55:02.133Z,995.71
2019-01-31T05:56:11.214Z,995.71
2019-01-31T05:57:20.040Z,995.69
2019-01-31T05:58:28.892Z,995.7
2019-01-31T05:59:37.962Z,995.72
2019-01-31T06:00:47.087Z,995.72
2019-01-31T06:01:56.164Z,995.73
2019-01-31T06:03:05.525Z,995.7
2019-01-31T06:04:14.605Z,995.73
2019-01-31T06:05:23.730Z,995.74
2019-01-31T06:06:33.118Z,995.79
2019-01-31T06:07:42.492Z,995.74
2019-01-31T06:08:51.384Z,995.79
2019-01-31T06:10:00.222Z,995.76
2019-01-31T06:11:09.850Z,995.78
2019-01-31T06:12:18.948Z,995.78
2019-01-31T06:13:27.842Z,995.8
2019-01-31T06:14:37.024Z,995.81
2019-01-31T06:15:45.851Z,995.82
2019-01-31T06:16:54.665Z,995.77
2019-01-31T06:18:03.469Z,995.83
2019-01-31T06:19:12.838Z,995.75
2019-01-31T06:20:22.232Z,995.81
2019-01-31T06:21:31.088Z,995.82
2019-01-31T06:22:39.922Z,995.8
2019-01-31T06:23:48.994Z,995.79
2019-01-31T06:24:58.072Z,995.81
2019-01-31T06:26:07.873Z,995.82
2019-01-31T06:27:16.692Z,995.8
2019-01-31T06:28:25.758Z,995.81
2019-01-31T06:29:35.099Z,995.88
2019-01-31T06:30:44.474Z,995.81
2019-01-31T06:31:53.892Z,995.86
2019-01-31T06:33:03.088Z,995.82
2019-01-31T06:34:12.501Z,995.85
2019-01-31T06:35:22.105Z,995.87
2019-01-31T06:36:31.319Z,995.86
2019-01-31T06:37:40.685Z,995.85
2019-01-31T06:38:49.513Z,995.86
2019-01-31T06:39:58.599Z,995.89
2019-01-31T06:41:17.922Z,995.81
2019-01-31T06:42:27.026Z,995.87
2019-01-31T06:43:35.934Z,995.9
2019-01-31T06:44:45.046Z,995.87
2019-01-31T06:45:56.194Z,995.9
2019-01-31T06:47:05.161Z,995.88
2019-01-31T06:48:14.285Z,995.91
2019-01-31T06:49:23.428Z,995.92
2019-01-31T06:50:32.273Z,995.97
2019-01-31T06:51:41.377Z,995.98
2019-01-31T06:52:50.186Z,995.99
2019-01-31T06:54:00.606Z,996
2019-01-31T06:55:12.426Z,996.01
2019-01-31T06:56:21.254Z,996.02
2019-01-31T06:57:30.319Z,996.05
2019-01-31T06:58:41.015Z,996.03
2019-01-31T06:59:50.355Z,996.07
2019-01-31T07:00:59.217Z,996.09
2019-01-31T07:02:08.023Z,996.09
2019-01-31T07:03:17.089Z,996.07
2019-01-31T07:04:25.905Z,996.11
2019-01-31T07:05:35.278Z,996.1
2019-01-31T07:06:44.293Z,996.14
2019-01-31T07:07:53.388Z,996.17
2019-01-31T07:09:04.942Z,996.2
2019-01-31T07:10:14.021Z,996.2
2019-01-31T07:11:29.552Z,996.28
2019-01-31T07:12:41.982Z,996.27
2019-01-31T07:13:51.169Z,996.24
2019-01-31T07:15:00.008Z,996.26
2019-01-31T07:16:09.332Z,996.28
2019-01-31T07:17:18.953Z,996.31
2019-01-31T07:18:28.137Z,996.31
2019-01-31T07:19:37.837Z,996.33
2019-01-31T07:20:46.908Z,996.29
2019-01-31T07:21:56.051Z,996.31
2019-01-31T07:23:04.860Z,996.32
2019-01-31T07:24:14.284Z,996.31
2019-01-31T07:25:23.367Z,996.35
2019-01-31T07:26:32.168Z,996.34
2019-01-31T07:27:43.853Z,996.36
2019-01-31T07:28:53.297Z,996.41
2019-01-31T07:30:02.161Z,996.38
2019-01-31T07:31:10.987Z,996.41
2019-01-31T07:32:19.796Z,996.45
2019-01-31T07:33:29.157Z,996.41
2019-01-31T07:34:38.495Z,996.42
2019-01-31T07:35:47.582Z,996.4
2019-01-31T07:36:59.262Z,996.37
2019-01-31T07:38:08.892Z,996.43
2019-01-31T07:39:17.713Z,996.45
2019-01-31T07:40:26.891Z,996.47
2019-01-31T07:41:41.187Z,996.48
2019-01-31T07:42:50.734Z,996.46
2019-01-31T07:44:00.061Z,996.48
2019-01-31T07:45:08.883Z,996.51
2019-01-31T07:46:17.980Z,996.53
2019-01-31T07:47:27.438Z,996.52
2019-01-31T07:48:39.472Z,996.5
2019-01-31T07:49:48.298Z,996.49
2019-01-31T07:50:57.113Z,996.46
2019-01-31T07:52:06.476Z,996.48
2019-01-31T07:53:15.653Z,996.44
2019-01-31T07:54:24.473Z,996.44
2019-01-31T07:55:33.570Z,996.48
2019-01-31T07:56:42.384Z,996.45
2019-01-31T07:57:52.012Z,996.48
2019-01-31T07:59:01.159Z,996.48
2019-01-31T08:00:10.252Z,996.46
2019-01-31T08:01:19.115Z,996.52
2019-01-31T08:02:28.244Z,996.54
2019-01-31T08:03:37.069Z,996.53
2019-01-31T08:04:47.911Z,996.55
2019-01-31T08:05:56.726Z,996.56
2019-01-31T08:07:05.828Z,996.58
2019-01-31T08:08:14.668Z,996.53
2019-01-31T08:09:23.917Z,996.5
2019-01-31T08:10:32.743Z,996.52
2019-01-31T08:11:52.004Z,996.53
2019-01-31T08:13:01.082Z,996.51
2019-01-31T08:14:10.188Z,996.51
2019-01-31T08:15:19.012Z,996.52
2019-01-31T08:16:27.965Z,996.49
2019-01-31T08:17:36.804Z,996.5
2019-01-31T08:18:45.920Z,996.5
2019-01-31T08:19:54.992Z,996.52
2019-01-31T08:21:03.815Z,996.49
2019-01-31T08:22:12.986Z,996.5
2019-01-31T08:23:22.076Z,996.51
2019-01-31T08:24:30.901Z,996.49
2019-01-31T08:25:40.249Z,996.52
2019-01-31T08:26:49.062Z,996.51
2019-01-31T08:28:00.801Z,996.52
2019-01-31T08:29:09.613Z,996.6
2019-01-31T08:30:19.226Z,996.55
2019-01-31T08:31:28.589Z,996.52
2019-01-31T08:32:37.667Z,996.54
2019-01-31T08:33:47.135Z,996.5
2019-01-31T08:34:55.946Z,996.5
2019-01-31T08:36:04.840Z,996.53
2019-01-31T08:37:13.653Z,996.59
2019-01-31T08:38:24.881Z,996.59
2019-01-31T08:39:37.181Z,996.64
2019-01-31T08:40:46.271Z,996.69
2019-01-31T08:42:03.406Z,996.65
2019-01-31T08:43:12.648Z,996.61
2019-01-31T08:44:23.259Z,996.63
2019-01-31T08:45:32.489Z,996.64
2019-01-31T08:46:41.578Z,996.64
2019-01-31T08:47:50.394Z,996.62
2019-01-31T08:48:59.468Z,996.63
2019-01-31T08:50:08.564Z,996.63
2019-01-31T08:51:17.387Z,996.67
2019-01-31T08:52:26.480Z,996.68
2019-01-31T08:53:35.823Z,996.74
2019-01-31T08:54:44.639Z,996.75
2019-01-31T08:55:53.744Z,996.76
2019-01-31T08:57:02.689Z,996.76
2019-01-31T08:58:12.037Z,996.74
2019-01-31T08:59:21.122Z,996.75
2019-01-31T09:00:30.499Z,996.75
2019-01-31T09:01:39.349Z,996.77
2019-01-31T09:02:48.204Z,996.76
2019-01-31T09:03:57.299Z,996.75
2019-01-31T09:05:06.467Z,996.73
2019-01-31T09:06:15.558Z,996.77
2019-01-31T09:07:24.407Z,996.75
2019-01-31T09:08:36.056Z,996.72
2019-01-31T09:09:44.886Z,996.73
2019-01-31T09:10:54.234Z,996.74
2019-01-31T09:12:03.069Z,996.76
2019-01-31T09:13:21.995Z,996.72
2019-01-31T09:14:30.866Z,996.73
2019-01-31T09:15:40.217Z,996.77
2019-01-31T09:16:49.603Z,996.76
2019-01-31T09:17:58.752Z,996.76
2019-01-31T09:19:07.871Z,996.75
2019-01-31T09:20:17.540Z,996.75
2019-01-31T09:21:26.372Z,996.8
2019-01-31T09:22:35.446Z,996.79
2019-01-31T09:23:44.291Z,996.79
2019-01-31T09:24:53.928Z,996.81
2019-01-31T09:26:02.817Z,996.83
2019-01-31T09:27:12.160Z,996.81
2019-01-31T09:28:21.244Z,996.82
2019-01-31T09:29:30.333Z,996.85
2019-01-31T09:30:39.426Z,996.89
2019-01-31T09:31:48.329Z,996.93
2019-01-31T09:32:57.394Z,996.87
2019-01-31T09:34:06.509Z,996.9
2019-01-31T09:35:16.157Z,996.9
2019-01-31T09:36:24.984Z,996.92
2019-01-31T09:37:33.881Z,996.9
2019-01-31T09:38:46.113Z,996.9
2019-01-31T09:39:55.214Z,996.9
2019-01-31T09:41:04.460Z,996.9
2019-01-31T09:42:25.993Z,996.9
2019-01-31T09:43:35.245Z,996.84
2019-01-31T09:44:44.086Z,996.85
2019-01-31T09:45:53.172Z,996.85
2019-01-31T09:47:02.016Z,996.85
2019-01-31T09:48:10.871Z,996.87
2019-01-31T09:49:19.707Z,996.89
2019-01-31T09:50:29.066Z,996.88
2019-01-31T09:51:39.627Z,996.87
2019-01-31T09:52:48.974Z,996.89
2019-01-31T09:53:59.419Z,996.89
2019-01-31T09:55:08.781Z,996.87
2019-01-31T09:56:17.889Z,996.91
2019-01-31T09:57:27.234Z,996.95
2019-01-31T09:58:36.039Z,996.92
2019-01-31T09:59:44.916Z,997.02
2019-01-31T10:00:53.977Z,996.94
2019-01-31T10:02:03.066Z,996.99
2019-01-31T10:03:12.168Z,997.03
2019-01-31T10:04:21.537Z,997
2019-01-31T10:05:30.474Z,997.07
2019-01-31T10:06:39.552Z,997.04
2019-01-31T10:07:48.635Z,997.03
2019-01-31T10:08:57.744Z,997.08
2019-01-31T10:10:06.592Z,997.07
2019-01-31T10:11:16.124Z,997.06
2019-01-31T10:12:25.255Z,997.08
2019-01-31T10:13:45.204Z,997.09
2019-01-31T10:14:54.688Z,997.08
2019-01-31T10:16:04.116Z,997.14
2019-01-31T10:17:14.026Z,997.15
2019-01-31T10:18:23.345Z,997.14
2019-01-31T10:19:32.519Z,997.12
2019-01-31T10:20:42.644Z,997.22
2019-01-31T10:21:52.112Z,997.17
2019-01-31T10:23:02.622Z,997.19
2019-01-31T10:24:12.205Z,997.28
2019-01-31T10:25:21.494Z,997.23
2019-01-31T10:26:31.211Z,997.27
2019-01-31T10:27:40.403Z,997.24
2019-01-31T10:28:49.316Z,997.27
2019-01-31T10:29:58.416Z,997.31
2019-01-31T10:31:07.801Z,997.28
2019-01-31T10:32:18.438Z,997.27
2019-01-31T10:33:27.519Z,997.33
2019-01-31T10:34:36.397Z,997.36
2019-01-31T10:35:45.228Z,997.39
2019-01-31T10:36:54.069Z,997.37
2019-01-31T10:38:03.444Z,997.41
2019-01-31T10:39:13.118Z,997.35
2019-01-31T10:40:22.002Z,997.4
2019-01-31T10:41:31.077Z,997.43
2019-01-31T10:42:49.303Z,997.41
2019-01-31T10:43:59.941Z,997.43
2019-01-31T10:45:09.009Z,997.41
2019-01-31T10:46:18.532Z,997.39
2019-01-31T10:47:27.356Z,997.4
2019-01-31T10:48:36.199Z,997.43
2019-01-31T10:49:45.021Z,997.45
2019-01-31T10:50:54.106Z,997.42
2019-01-31T10:52:05.922Z,997.41
2019-01-31T10:53:15.277Z,997.39
2019-01-31T10:54:24.344Z,997.37
2019-01-31T10:55:33.161Z,997.38
2019-01-31T10:56:44.283Z,997.36
2019-01-31T10:57:53.937Z,997.41
2019-01-31T10:59:03.312Z,997.38
2019-01-31T11:00:12.696Z,997.37
2019-01-31T11:01:21.764Z,997.4
2019-01-31T11:02:30.836Z,997.41
2019-01-31T11:03:39.786Z,997.42
2019-01-31T11:04:48.976Z,997.46
2019-01-31T11:05:58.075Z,997.41
2019-01-31T11:07:07.151Z,997.46
2019-01-31T11:08:15.982Z,997.47
2019-01-31T11:09:25.343Z,997.48
2019-01-31T11:10:34.445Z,997.49
2019-01-31T11:11:43.560Z,997.5
2019-01-31T11:13:00.166Z,997.49
2019-01-31T11:14:10.191Z,997.51
2019-01-31T11:15:19.076Z,997.46
2019-01-31T11:16:28.222Z,997.52
2019-01-31T11:17:37.304Z,997.54
2019-01-31T11:18:46.347Z,997.57
2019-01-31T11:20:11.657Z,997.56
2019-01-31T11:21:21.327Z,997.52
2019-01-31T11:22:30.438Z,997.54
2019-01-31T11:23:39.250Z,997.54
2019-01-31T11:24:48.357Z,997.53
2019-01-31T11:25:57.243Z,997.57
2019-01-31T11:27:06.060Z,997.5
2019-01-31T11:28:15.149Z,997.5
2019-01-31T11:29:24.242Z,997.55
2019-01-31T11:30:33.078Z,997.56
2019-01-31T11:31:42.365Z,997.55
2019-01-31T11:32:51.837Z,997.6
2019-01-31T11:34:00.972Z,997.58
2019-01-31T11:35:10.042Z,997.56
2019-01-31T11:36:18.858Z,997.54
2019-01-31T11:37:27.933Z,997.63
2019-01-31T11:38:37.266Z,997.62
2019-01-31T11:39:46.393Z,997.59
2019-01-31T11:40:55.605Z,997.62
2019-01-31T11:42:04.998Z,997.61
2019-01-31T11:43:13.821Z,997.63
2019-01-31T11:44:22.902Z,997.68
2019-01-31T11:45:32.049Z,997.72
2019-01-31T11:46:41.200Z,997.73
2019-01-31T11:47:50.093Z,997.69
2019-01-31T11:48:59.181Z,997.67
2019-01-31T11:50:08.011Z,997.66
2019-01-31T11:51:17.099Z,997.73
2019-01-31T11:52:26.220Z,997.74
2019-01-31T11:53:35.034Z,997.71
2019-01-31T11:54:44.389Z,997.73
2019-01-31T11:55:55.560Z,997.75
2019-01-31T11:57:05.601Z,997.76
2019-01-31T11:58:14.920Z,997.7
2019-01-31T11:59:23.749Z,997.7
2019-01-31T12:00:32.893Z,997.71
2019-01-31T12:01:41.966Z,997.72
2019-01-31T12:02:54.856Z,997.71
2019-01-31T12:04:04.268Z,997.71
2019-01-31T12:05:13.614Z,997.69
2019-01-31T12:06:22.448Z,997.76
2019-01-31T12:07:31.264Z,997.71
2019-01-31T12:08:41.789Z,997.72
2019-01-31T12:09:51.044Z,997.78
2019-01-31T12:11:00.426Z,997.77
2019-01-31T12:12:09.764Z,997.77
2019-01-31T12:13:23.433Z,997.71
2019-01-31T12:14:32.567Z,997.79
2019-01-31T12:15:41.770Z,997.74
2019-01-31T12:16:50.894Z,997.78
2019-01-31T12:18:00.241Z,997.75
2019-01-31T12:19:09.173Z,997.72
2019-01-31T12:20:18.274Z,997.75
2019-01-31T12:21:27.192Z,997.76
2019-01-31T12:22:36.531Z,997.73
2019-01-31T12:23:45.602Z,997.74
2019-01-31T12:24:54.690Z,997.72
2019-01-31T12:26:03.501Z,997.75
2019-01-31T12:27:14.295Z,997.78
2019-01-31T12:28:23.130Z,997.77
2019-01-31T12:29:32.478Z,997.78
2019-01-31T12:30:41.294Z,997.77
2019-01-31T12:31:50.656Z,997.73
2019-01-31T12:33:00.041Z,997.78
2019-01-31T12:34:09.139Z,997.79
2019-01-31T12:35:17.982Z,997.77
2019-01-31T12:36:27.354Z,997.79
2019-01-31T12:37:36.437Z,997.73
2019-01-31T12:38:45.657Z,997.77
2019-01-31T12:39:57.317Z,997.74
2019-01-31T12:41:06.135Z,997.7
2019-01-31T12:42:15.004Z,997.67
2019-01-31T12:43:34.270Z,997.75
2019-01-31T12:44:43.714Z,997.68
2019-01-31T12:45:52.836Z,997.74
2019-01-31T12:47:01.649Z,997.7
2019-01-31T12:48:10.476Z,997.73
2019-01-31T12:49:19.547Z,997.71
2019-01-31T12:50:29.252Z,997.72
2019-01-31T12:51:38.351Z,997.74
2019-01-31T12:52:47.516Z,997.74
2019-01-31T12:53:56.358Z,997.73
2019-01-31T12:55:05.446Z,997.71
2019-01-31T12:56:14.865Z,997.75
2019-01-31T12:57:23.945Z,997.72
2019-01-31T12:58:33.873Z,997.73
2019-01-31T12:59:43.075Z,997.75
2019-01-31T13:00:51.910Z,997.8
2019-01-31T13:02:01.001Z,997.82
2019-01-31T13:03:09.831Z,997.78
2019-01-31T13:04:20.547Z,997.84
2019-01-31T13:05:30.166Z,997.79
2019-01-31T13:06:39.235Z,997.85
2019-01-31T13:07:48.439Z,997.82
2019-01-31T13:08:57.277Z,997.8
2019-01-31T13:10:06.631Z,997.84
2019-01-31T13:11:15.561Z,997.84
2019-01-31T13:12:25.204Z,997.84
2019-01-31T13:13:34.029Z,997.86
2019-01-31T13:14:52.811Z,997.87
2019-01-31T13:16:02.427Z,997.86
2019-01-31T13:17:11.893Z,997.84
2019-01-31T13:18:20.748Z,997.87
2019-01-31T13:19:29.876Z,997.9
2019-01-31T13:20:38.687Z,997.9
2019-01-31T13:21:47.527Z,997.89
2019-01-31T13:22:56.367Z,997.89
2019-01-31T13:24:05.207Z,997.87
2019-01-31T13:25:14.308Z,997.88
2019-01-31T13:26:23.132Z,997.92
2019-01-31T13:27:31.972Z,997.91
2019-01-31T13:28:40.805Z,997.93
2019-01-31T13:29:49.890Z,997.91
2019-01-31T13:30:58.998Z,997.94
2019-01-31T13:32:07.853Z,997.96
2019-01-31T13:33:16.678Z,997.97
2019-01-31T13:34:26.311Z,997.96
2019-01-31T13:35:35.403Z,997.99
2019-01-31T13:36:44.596Z,998
2019-01-31T13:37:53.440Z,997.94
2019-01-31T13:39:03.067Z,997.96
2019-01-31T13:40:12.135Z,997.91
2019-01-31T13:41:21.235Z,997.94
2019-01-31T13:42:30.102Z,997.95
2019-01-31T13:43:38.943Z,997.95
2019-01-31T13:45:00.329Z,997.98
2019-01-31T13:46:09.689Z,997.98
2019-01-31T13:47:18.782Z,997.97
2019-01-31T13:48:27.904Z,998.01
2019-01-31T13:49:36.728Z,998.01
2019-01-31T13:50:45.799Z,998
2019-01-31T13:51:55.431Z,998.04
2019-01-31T13:53:04.269Z,998.01
2019-01-31T13:54:13.114Z,998
2019-01-31T13:55:22.185Z,997.98
2019-01-31T13:56:31.291Z,998
2019-01-31T13:57:52.123Z,997.99
2019-01-31T13:59:01.068Z,997.96
2019-01-31T14:00:09.984Z,997.96
2019-01-31T14:01:18.837Z,997.96
2019-01-31T14:02:28.048Z,997.94
2019-01-31T14:03:37.120Z,997.94
2019-01-31T14:04:46.204Z,997.97
2019-01-31T14:05:55.388Z,997.96
2019-01-31T14:07:04.470Z,997.93
2019-01-31T14:08:13.807Z,997.95
2019-01-31T14:09:23.276Z,998
2019-01-31T14:10:32.111Z,997.95
2019-01-31T14:11:43.956Z,997.93
2019-01-31T14:12:52.899Z,997.95
2019-01-31T14:14:08.665Z,997.91
2019-01-31T14:15:18.412Z,997.87
2019-01-31T14:16:47.036Z,997.89
2019-01-31T14:17:57.005Z,997.9
2019-01-31T14:19:06.155Z,997.9
2019-01-31T14:20:15.540Z,997.93
2019-01-31T14:21:24.364Z,997.88
2019-01-31T14:22:42.711Z,997.93
2019-01-31T14:23:52.017Z,997.92
2019-01-31T14:25:00.830Z,997.94
2019-01-31T14:26:10.180Z,997.92
2019-01-31T14:27:19.036Z,997.96
2019-01-31T14:28:28.472Z,997.95
2019-01-31T14:29:37.565Z,997.97
2019-01-31T14:30:46.657Z,997.99
2019-01-31T14:31:55.736Z,997.98